sensor_id;sensor_type;location;lat;lon;timestamp;P1;durP1;ratioP1;P2;durP2;ratioP2
58354;SDS011;44160;49.080;19.302;2023-07-09T00:02:22;4.88;;;3.53;;
58354;SDS011;44160;49.080;19.302;2023-07-09T00:04:49;4.50;;;3.42;;
58354;SDS011;44160;49.080;19.302;2023-07-09T00:07:19;4.40;;;3.60;;
58354;SDS011;44160;49.080;19.302;2023-07-09T00:09:47;4.70;;;3.80;;
58354;SDS011;44160;49.080;19.302;2023-07-09T00:12:14;4.30;;;3.55;;
58354;SDS011;44160;49.080;19.302;2023-07-09T00:14:41;5.07;;;3.50;;
58354;SDS011;44160;49.080;19.302;2023-07-09T00:17:26;5.10;;;3.85;;
58354;SDS011;44160;49.080;19.302;2023-07-09T00:19:52;5.32;;;3.70;;
58354;SDS011;44160;49.080;19.302;2023-07-09T00:22:19;6.35;;;3.53;;
58354;SDS011;44160;49.080;19.302;2023-07-09T00:24:47;5.43;;;4.43;;
58354;SDS011;44160;49.080;19.302;2023-07-09T00:27:16;5.10;;;3.33;;
58354;SDS011;44160;49.080;19.302;2023-07-09T00:29:43;6.90;;;3.58;;
58354;SDS011;44160;49.080;19.302;2023-07-09T00:32:16;6.30;;;4.28;;
58354;SDS011;44160;49.080;19.302;2023-07-09T00:34:48;6.20;;;3.40;;
58354;SDS011;44160;49.080;19.302;2023-07-09T00:37:14;5.97;;;4.03;;
58354;SDS011;44160;49.080;19.302;2023-07-09T00:39:41;5.40;;;3.80;;
58354;SDS011;44160;49.080;19.302;2023-07-09T00:42:42;6.03;;;3.75;;
58354;SDS011;44160;49.080;19.302;2023-07-09T00:44:59;5.78;;;3.78;;
58354;SDS011;44160;49.080;19.302;2023-07-09T00:50:03;5.65;;;3.80;;
58354;SDS011;44160;49.080;19.302;2023-07-09T00:55:28;8.20;;;3.65;;
58354;SDS011;44160;49.080;19.302;2023-07-09T00:57:57;8.43;;;3.72;;
58354;SDS011;44160;49.080;19.302;2023-07-09T01:00:27;4.90;;;3.50;;
58354;SDS011;44160;49.080;19.302;2023-07-09T01:02:54;4.63;;;3.60;;
58354;SDS011;44160;49.080;19.302;2023-07-09T01:05:20;5.95;;;3.45;;
58354;SDS011;44160;49.080;19.302;2023-07-09T01:07:46;8.30;;;3.72;;
58354;SDS011;44160;49.080;19.302;2023-07-09T01:10:14;6.07;;;3.40;;
58354;SDS011;44160;49.080;19.302;2023-07-09T01:12:40;6.32;;;3.80;;
58354;SDS011;44160;49.080;19.302;2023-07-09T01:15:07;3.95;;;2.67;;
58354;SDS011;44160;49.080;19.302;2023-07-09T01:17:33;3.90;;;3.10;;
58354;SDS011;44160;49.080;19.302;2023-07-09T01:19:59;4.65;;;3.47;;
58354;SDS011;44160;49.080;19.302;2023-07-09T01:22:25;6.43;;;3.90;;
58354;SDS011;44160;49.080;19.302;2023-07-09T01:24:57;5.53;;;3.50;;
58354;SDS011;44160;49.080;19.302;2023-07-09T01:27:34;6.47;;;4.18;;
58354;SDS011;44160;49.080;19.302;2023-07-09T01:30:02;4.38;;;3.75;;
58354;SDS011;44160;49.080;19.302;2023-07-09T01:32:28;4.68;;;3.78;;
58354;SDS011;44160;49.080;19.302;2023-07-09T01:34:57;7.47;;;3.70;;
58354;SDS011;44160;49.080;19.302;2023-07-09T01:37:25;4.13;;;3.47;;
58354;SDS011;44160;49.080;19.302;2023-07-09T01:39:51;9.70;;;4.07;;
58354;SDS011;44160;49.080;19.302;2023-07-09T01:42:18;5.30;;;3.45;;
58354;SDS011;44160;49.080;19.302;2023-07-09T01:44:47;6.50;;;3.95;;
58354;SDS011;44160;49.080;19.302;2023-07-09T01:47:14;5.10;;;3.58;;
58354;SDS011;44160;49.080;19.302;2023-07-09T01:49:40;6.80;;;3.75;;
58354;SDS011;44160;49.080;19.302;2023-07-09T01:52:06;5.55;;;4.13;;
58354;SDS011;44160;49.080;19.302;2023-07-09T01:54:33;8.48;;;4.22;;
58354;SDS011;44160;49.080;19.302;2023-07-09T01:57:13;4.00;;;3.60;;
58354;SDS011;44160;49.080;19.302;2023-07-09T01:59:39;4.60;;;3.60;;
58354;SDS011;44160;49.080;19.302;2023-07-09T02:02:06;4.03;;;3.10;;
58354;SDS011;44160;49.080;19.302;2023-07-09T02:04:32;4.63;;;3.60;;
58354;SDS011;44160;49.080;19.302;2023-07-09T02:06:58;4.40;;;3.78;;
58354;SDS011;44160;49.080;19.302;2023-07-09T02:09:24;5.65;;;4.15;;
58354;SDS011;44160;49.080;19.302;2023-07-09T02:11:50;6.93;;;4.55;;
58354;SDS011;44160;49.080;19.302;2023-07-09T02:14:16;4.20;;;3.33;;
58354;SDS011;44160;49.080;19.302;2023-07-09T02:16:44;4.38;;;3.17;;
58354;SDS011;44160;49.080;19.302;2023-07-09T02:19:10;4.50;;;3.67;;
58354;SDS011;44160;49.080;19.302;2023-07-09T02:21:36;9.18;;;3.90;;
58354;SDS011;44160;49.080;19.302;2023-07-09T02:24:02;7.18;;;4.60;;
58354;SDS011;44160;49.080;19.302;2023-07-09T02:26:29;7.53;;;4.15;;
58354;SDS011;44160;49.080;19.302;2023-07-09T02:28:55;7.82;;;3.70;;
58354;SDS011;44160;49.080;19.302;2023-07-09T02:31:21;6.95;;;4.50;;
58354;SDS011;44160;49.080;19.302;2023-07-09T02:33:47;6.50;;;4.50;;
58354;SDS011;44160;49.080;19.302;2023-07-09T02:36:12;7.07;;;4.47;;
58354;SDS011;44160;49.080;19.302;2023-07-09T02:38:38;6.15;;;4.47;;
58354;SDS011;44160;49.080;19.302;2023-07-09T02:41:04;6.82;;;4.47;;
58354;SDS011;44160;49.080;19.302;2023-07-09T02:43:31;9.95;;;4.28;;
58354;SDS011;44160;49.080;19.302;2023-07-09T02:45:56;5.45;;;4.13;;
58354;SDS011;44160;49.080;19.302;2023-07-09T02:48:22;8.10;;;4.43;;
58354;SDS011;44160;49.080;19.302;2023-07-09T02:50:49;4.05;;;3.22;;
58354;SDS011;44160;49.080;19.302;2023-07-09T02:53:15;5.63;;;4.10;;
58354;SDS011;44160;49.080;19.302;2023-07-09T02:55:41;5.97;;;4.28;;
58354;SDS011;44160;49.080;19.302;2023-07-09T02:58:07;6.88;;;4.18;;
58354;SDS011;44160;49.080;19.302;2023-07-09T03:00:33;5.57;;;3.90;;
58354;SDS011;44160;49.080;19.302;2023-07-09T03:02:59;6.03;;;3.92;;
58354;SDS011;44160;49.080;19.302;2023-07-09T03:05:25;5.68;;;4.28;;
58354;SDS011;44160;49.080;19.302;2023-07-09T03:07:51;5.03;;;3.90;;
58354;SDS011;44160;49.080;19.302;2023-07-09T03:10:17;5.50;;;4.05;;
58354;SDS011;44160;49.080;19.302;2023-07-09T03:12:43;6.07;;;3.78;;
58354;SDS011;44160;49.080;19.302;2023-07-09T03:15:09;6.30;;;4.03;;
58354;SDS011;44160;49.080;19.302;2023-07-09T03:17:35;4.93;;;3.70;;
58354;SDS011;44160;49.080;19.302;2023-07-09T03:20:01;5.70;;;4.13;;
58354;SDS011;44160;49.080;19.302;2023-07-09T03:22:27;8.10;;;3.58;;
58354;SDS011;44160;49.080;19.302;2023-07-09T03:24:53;7.63;;;3.97;;
58354;SDS011;44160;49.080;19.302;2023-07-09T03:27:19;6.35;;;4.15;;
58354;SDS011;44160;49.080;19.302;2023-07-09T03:29:45;10.55;;;3.88;;
58354;SDS011;44160;49.080;19.302;2023-07-09T03:32:11;6.32;;;3.55;;
58354;SDS011;44160;49.080;19.302;2023-07-09T03:34:37;7.75;;;3.60;;
58354;SDS011;44160;49.080;19.302;2023-07-09T03:37:03;5.30;;;3.78;;
58354;SDS011;44160;49.080;19.302;2023-07-09T03:39:30;6.45;;;3.92;;
58354;SDS011;44160;49.080;19.302;2023-07-09T03:41:56;4.53;;;3.60;;
58354;SDS011;44160;49.080;19.302;2023-07-09T03:44:22;6.85;;;3.72;;
58354;SDS011;44160;49.080;19.302;2023-07-09T03:46:48;6.82;;;4.00;;
58354;SDS011;44160;49.080;19.302;2023-07-09T03:49:14;10.13;;;5.85;;
58354;SDS011;44160;49.080;19.302;2023-07-09T03:51:40;6.65;;;4.55;;
58354;SDS011;44160;49.080;19.302;2023-07-09T03:54:06;9.50;;;5.78;;
58354;SDS011;44160;49.080;19.302;2023-07-09T03:56:32;5.60;;;4.25;;
58354;SDS011;44160;49.080;19.302;2023-07-09T03:58:58;8.18;;;4.20;;
58354;SDS011;44160;49.080;19.302;2023-07-09T04:01:24;7.40;;;3.42;;
58354;SDS011;44160;49.080;19.302;2023-07-09T04:03:50;4.57;;;3.42;;
58354;SDS011;44160;49.080;19.302;2023-07-09T04:06:17;4.28;;;3.63;;
58354;SDS011;44160;49.080;19.302;2023-07-09T04:08:44;5.03;;;3.65;;
58354;SDS011;44160;49.080;19.302;2023-07-09T04:11:10;7.18;;;4.78;;
58354;SDS011;44160;49.080;19.302;2023-07-09T04:13:36;5.82;;;3.58;;
58354;SDS011;44160;49.080;19.302;2023-07-09T04:16:03;4.95;;;3.30;;
58354;SDS011;44160;49.080;19.302;2023-07-09T04:18:29;4.10;;;3.22;;
58354;SDS011;44160;49.080;19.302;2023-07-09T04:20:57;8.27;;;3.55;;
58354;SDS011;44160;49.080;19.302;2023-07-09T04:23:23;5.38;;;3.90;;
58354;SDS011;44160;49.080;19.302;2023-07-09T04:25:49;6.85;;;4.20;;
58354;SDS011;44160;49.080;19.302;2023-07-09T04:28:15;8.73;;;3.45;;
58354;SDS011;44160;49.080;19.302;2023-07-09T04:30:48;5.20;;;3.78;;
58354;SDS011;44160;49.080;19.302;2023-07-09T04:33:14;4.78;;;3.78;;
58354;SDS011;44160;49.080;19.302;2023-07-09T04:35:42;7.07;;;4.13;;
58354;SDS011;44160;49.080;19.302;2023-07-09T04:38:08;5.07;;;3.90;;
58354;SDS011;44160;49.080;19.302;2023-07-09T04:40:35;5.63;;;3.92;;
58354;SDS011;44160;49.080;19.302;2023-07-09T04:43:01;6.38;;;3.90;;
58354;SDS011;44160;49.080;19.302;2023-07-09T04:45:27;6.18;;;3.78;;
58354;SDS011;44160;49.080;19.302;2023-07-09T04:47:53;7.28;;;3.70;;
58354;SDS011;44160;49.080;19.302;2023-07-09T04:50:19;10.18;;;4.78;;
58354;SDS011;44160;49.080;19.302;2023-07-09T04:52:45;6.13;;;3.92;;
58354;SDS011;44160;49.080;19.302;2023-07-09T04:55:11;7.43;;;3.95;;
58354;SDS011;44160;49.080;19.302;2023-07-09T04:57:37;8.20;;;4.10;;
58354;SDS011;44160;49.080;19.302;2023-07-09T05:00:03;6.30;;;3.90;;
58354;SDS011;44160;49.080;19.302;2023-07-09T05:02:30;6.72;;;3.63;;
58354;SDS011;44160;49.080;19.302;2023-07-09T05:04:56;6.13;;;4.20;;
58354;SDS011;44160;49.080;19.302;2023-07-09T05:07:22;6.55;;;4.22;;
58354;SDS011;44160;49.080;19.302;2023-07-09T05:09:48;10.00;;;4.15;;
58354;SDS011;44160;49.080;19.302;2023-07-09T05:12:14;6.07;;;4.30;;
58354;SDS011;44160;49.080;19.302;2023-07-09T05:14:40;6.80;;;4.22;;
58354;SDS011;44160;49.080;19.302;2023-07-09T05:17:07;11.20;;;4.05;;
58354;SDS011;44160;49.080;19.302;2023-07-09T05:19:33;8.88;;;4.13;;
58354;SDS011;44160;49.080;19.302;2023-07-09T05:21:59;5.97;;;4.30;;
58354;SDS011;44160;49.080;19.302;2023-07-09T05:24:25;5.85;;;4.00;;
58354;SDS011;44160;49.080;19.302;2023-07-09T05:26:51;8.52;;;3.70;;
58354;SDS011;44160;49.080;19.302;2023-07-09T05:29:17;6.68;;;4.25;;
58354;SDS011;44160;49.080;19.302;2023-07-09T05:31:43;7.18;;;4.93;;
58354;SDS011;44160;49.080;19.302;2023-07-09T05:34:09;12.27;;;5.53;;
58354;SDS011;44160;49.080;19.302;2023-07-09T05:36:35;7.43;;;4.13;;
58354;SDS011;44160;49.080;19.302;2023-07-09T05:39:01;6.47;;;4.70;;
58354;SDS011;44160;49.080;19.302;2023-07-09T05:41:27;7.25;;;3.40;;
58354;SDS011;44160;49.080;19.302;2023-07-09T05:43:53;11.23;;;4.10;;
58354;SDS011;44160;49.080;19.302;2023-07-09T05:46:21;8.15;;;3.95;;
58354;SDS011;44160;49.080;19.302;2023-07-09T05:48:48;7.65;;;3.85;;
58354;SDS011;44160;49.080;19.302;2023-07-09T05:51:14;9.50;;;3.50;;
58354;SDS011;44160;49.080;19.302;2023-07-09T05:53:40;8.82;;;3.22;;
58354;SDS011;44160;49.080;19.302;2023-07-09T05:56:06;6.93;;;4.10;;
58354;SDS011;44160;49.080;19.302;2023-07-09T05:58:32;9.75;;;3.65;;
58354;SDS011;44160;49.080;19.302;2023-07-09T06:00:58;6.13;;;3.42;;
58354;SDS011;44160;49.080;19.302;2023-07-09T06:03:25;6.20;;;3.03;;
58354;SDS011;44160;49.080;19.302;2023-07-09T06:05:51;5.80;;;3.92;;
58354;SDS011;44160;49.080;19.302;2023-07-09T06:08:18;9.90;;;3.70;;
58354;SDS011;44160;49.080;19.302;2023-07-09T06:10:58;6.25;;;3.13;;
58354;SDS011;44160;49.080;19.302;2023-07-09T06:13:25;5.57;;;3.50;;
58354;SDS011;44160;49.080;19.302;2023-07-09T06:15:51;5.20;;;3.65;;
58354;SDS011;44160;49.080;19.302;2023-07-09T06:18:18;6.05;;;3.33;;
58354;SDS011;44160;49.080;19.302;2023-07-09T06:20:48;7.68;;;3.58;;
58354;SDS011;44160;49.080;19.302;2023-07-09T06:23:14;6.80;;;3.75;;
58354;SDS011;44160;49.080;19.302;2023-07-09T06:25:40;8.15;;;3.55;;
58354;SDS011;44160;49.080;19.302;2023-07-09T06:28:06;6.72;;;3.47;;
58354;SDS011;44160;49.080;19.302;2023-07-09T06:30:32;8.35;;;3.75;;
58354;SDS011;44160;49.080;19.302;2023-07-09T06:32:58;8.50;;;3.63;;
58354;SDS011;44160;49.080;19.302;2023-07-09T06:35:24;11.50;;;3.90;;
58354;SDS011;44160;49.080;19.302;2023-07-09T06:37:50;6.93;;;3.55;;
58354;SDS011;44160;49.080;19.302;2023-07-09T06:40:16;4.90;;;3.60;;
58354;SDS011;44160;49.080;19.302;2023-07-09T06:42:42;8.38;;;3.95;;
58354;SDS011;44160;49.080;19.302;2023-07-09T06:45:08;6.25;;;3.70;;
58354;SDS011;44160;49.080;19.302;2023-07-09T06:47:37;6.65;;;3.20;;
58354;SDS011;44160;49.080;19.302;2023-07-09T06:50:04;6.63;;;3.30;;
58354;SDS011;44160;49.080;19.302;2023-07-09T06:52:30;6.40;;;3.65;;
58354;SDS011;44160;49.080;19.302;2023-07-09T06:54:56;8.50;;;3.17;;
58354;SDS011;44160;49.080;19.302;2023-07-09T06:57:22;7.65;;;3.63;;
58354;SDS011;44160;49.080;19.302;2023-07-09T06:59:48;6.00;;;3.80;;
58354;SDS011;44160;49.080;19.302;2023-07-09T07:02:14;8.20;;;3.97;;
58354;SDS011;44160;49.080;19.302;2023-07-09T07:04:40;4.82;;;3.38;;
58354;SDS011;44160;49.080;19.302;2023-07-09T07:07:06;4.72;;;3.30;;
58354;SDS011;44160;49.080;19.302;2023-07-09T07:09:32;6.80;;;3.25;;
58354;SDS011;44160;49.080;19.302;2023-07-09T07:11:58;5.40;;;3.53;;
58354;SDS011;44160;49.080;19.302;2023-07-09T07:14:24;5.22;;;2.88;;
58354;SDS011;44160;49.080;19.302;2023-07-09T07:16:50;5.60;;;3.38;;
58354;SDS011;44160;49.080;19.302;2023-07-09T07:19:16;6.88;;;2.97;;
58354;SDS011;44160;49.080;19.302;2023-07-09T07:21:42;6.22;;;4.03;;
58354;SDS011;44160;49.080;19.302;2023-07-09T07:24:08;5.03;;;3.78;;
58354;SDS011;44160;49.080;19.302;2023-07-09T07:26:34;11.60;;;3.65;;
58354;SDS011;44160;49.080;19.302;2023-07-09T07:29:00;4.38;;;3.15;;
58354;SDS011;44160;49.080;19.302;2023-07-09T07:31:27;5.78;;;2.88;;
58354;SDS011;44160;49.080;19.302;2023-07-09T07:33:53;8.60;;;3.60;;
58354;SDS011;44160;49.080;19.302;2023-07-09T07:36:19;8.85;;;3.72;;
58354;SDS011;44160;49.080;19.302;2023-07-09T07:38:45;5.75;;;3.58;;
58354;SDS011;44160;49.080;19.302;2023-07-09T07:41:11;5.55;;;3.33;;
58354;SDS011;44160;49.080;19.302;2023-07-09T07:43:37;6.18;;;3.42;;
58354;SDS011;44160;49.080;19.302;2023-07-09T07:46:03;4.50;;;3.10;;
58354;SDS011;44160;49.080;19.302;2023-07-09T07:48:29;4.53;;;3.53;;
58354;SDS011;44160;49.080;19.302;2023-07-09T07:51:02;6.00;;;3.90;;
58354;SDS011;44160;49.080;19.302;2023-07-09T07:53:28;8.43;;;3.25;;
58354;SDS011;44160;49.080;19.302;2023-07-09T07:55:55;8.30;;;3.45;;
58354;SDS011;44160;49.080;19.302;2023-07-09T07:58:21;9.80;;;3.90;;
58354;SDS011;44160;49.080;19.302;2023-07-09T08:00:47;6.43;;;3.53;;
58354;SDS011;44160;49.080;19.302;2023-07-09T08:03:13;5.95;;;3.50;;
58354;SDS011;44160;49.080;19.302;2023-07-09T08:05:40;7.85;;;3.78;;
58354;SDS011;44160;49.080;19.302;2023-07-09T08:08:06;4.88;;;3.58;;
58354;SDS011;44160;49.080;19.302;2023-07-09T08:10:32;5.28;;;2.90;;
58354;SDS011;44160;49.080;19.302;2023-07-09T08:12:58;4.57;;;2.97;;
58354;SDS011;44160;49.080;19.302;2023-07-09T08:15:24;6.35;;;3.10;;
58354;SDS011;44160;49.080;19.302;2023-07-09T08:17:50;8.70;;;3.20;;
58354;SDS011;44160;49.080;19.302;2023-07-09T08:20:16;6.32;;;3.13;;
58354;SDS011;44160;49.080;19.302;2023-07-09T08:22:43;9.95;;;3.20;;
58354;SDS011;44160;49.080;19.302;2023-07-09T08:25:09;5.47;;;2.85;;
58354;SDS011;44160;49.080;19.302;2023-07-09T08:27:35;3.53;;;2.42;;
58354;SDS011;44160;49.080;19.302;2023-07-09T08:30:01;3.97;;;3.00;;
58354;SDS011;44160;49.080;19.302;2023-07-09T08:32:27;4.70;;;2.92;;
58354;SDS011;44160;49.080;19.302;2023-07-09T08:34:54;4.45;;;2.67;;
58354;SDS011;44160;49.080;19.302;2023-07-09T08:37:20;5.90;;;2.92;;
58354;SDS011;44160;49.080;19.302;2023-07-09T08:39:46;4.88;;;3.15;;
58354;SDS011;44160;49.080;19.302;2023-07-09T08:42:14;4.53;;;2.90;;
58354;SDS011;44160;49.080;19.302;2023-07-09T08:47:33;6.90;;;2.15;;
58354;SDS011;44160;49.080;19.302;2023-07-09T08:50:04;2.45;;;1.80;;
58354;SDS011;44160;49.080;19.302;2023-07-09T08:52:39;4.03;;;2.17;;
58354;SDS011;44160;49.080;19.302;2023-07-09T08:55:08;3.58;;;2.40;;
58354;SDS011;44160;49.080;19.302;2023-07-09T08:57:37;3.13;;;2.13;;
58354;SDS011;44160;49.080;19.302;2023-07-09T09:02:39;5.07;;;2.10;;
58354;SDS011;44160;49.080;19.302;2023-07-09T09:05:06;3.50;;;1.90;;
58354;SDS011;44160;49.080;19.302;2023-07-09T09:10:07;4.28;;;2.53;;
58354;SDS011;44160;49.080;19.302;2023-07-09T09:12:38;4.70;;;1.83;;
58354;SDS011;44160;49.080;19.302;2023-07-09T09:15:10;3.05;;;1.73;;
58354;SDS011;44160;49.080;19.302;2023-07-09T09:17:38;3.30;;;2.03;;
58354;SDS011;44160;49.080;19.302;2023-07-09T09:20:06;5.07;;;1.73;;
58354;SDS011;44160;49.080;19.302;2023-07-09T09:22:42;2.55;;;1.80;;
58354;SDS011;44160;49.080;19.302;2023-07-09T09:27:42;7.88;;;1.85;;
58354;SDS011;44160;49.080;19.302;2023-07-09T09:30:13;2.33;;;2.10;;
58354;SDS011;44160;49.080;19.302;2023-07-09T09:32:43;3.50;;;1.85;;
58354;SDS011;44160;49.080;19.302;2023-07-09T09:35:17;2.47;;;1.83;;
58354;SDS011;44160;49.080;19.302;2023-07-09T09:37:49;3.65;;;2.17;;
58354;SDS011;44160;49.080;19.302;2023-07-09T09:40:17;2.03;;;1.80;;
58354;SDS011;44160;49.080;19.302;2023-07-09T09:42:43;3.90;;;1.98;;
58354;SDS011;44160;49.080;19.302;2023-07-09T09:45:13;4.35;;;2.00;;
58354;SDS011;44160;49.080;19.302;2023-07-09T09:47:41;4.00;;;1.90;;
58354;SDS011;44160;49.080;19.302;2023-07-09T09:50:08;4.07;;;1.60;;
58354;SDS011;44160;49.080;19.302;2023-07-09T09:52:35;3.92;;;2.30;;
58354;SDS011;44160;49.080;19.302;2023-07-09T09:55:08;4.68;;;2.10;;
58354;SDS011;44160;49.080;19.302;2023-07-09T09:57:36;2.78;;;2.20;;
58354;SDS011;44160;49.080;19.302;2023-07-09T10:00:02;3.53;;;2.20;;
58354;SDS011;44160;49.080;19.302;2023-07-09T10:02:37;3.75;;;2.30;;
58354;SDS011;44160;49.080;19.302;2023-07-09T10:05:10;3.00;;;1.80;;
58354;SDS011;44160;49.080;19.302;2023-07-09T10:07:38;5.72;;;2.08;;
58354;SDS011;44160;49.080;19.302;2023-07-09T10:10:09;3.58;;;2.47;;
58354;SDS011;44160;49.080;19.302;2023-07-09T10:12:59;3.08;;;1.92;;
58354;SDS011;44160;49.080;19.302;2023-07-09T10:18:02;3.17;;;2.08;;
58354;SDS011;44160;49.080;19.302;2023-07-09T10:20:44;13.80;;;2.35;;
58354;SDS011;44160;49.080;19.302;2023-07-09T10:23:18;2.33;;;1.85;;
58354;SDS011;44160;49.080;19.302;2023-07-09T10:26:06;2.22;;;1.73;;
58354;SDS011;44160;49.080;19.302;2023-07-09T10:36:06;2.03;;;1.80;;
58354;SDS011;44160;49.080;19.302;2023-07-09T10:41:21;3.10;;;2.03;;
58354;SDS011;44160;49.080;19.302;2023-07-09T10:46:34;2.75;;;1.92;;
58354;SDS011;44160;49.080;19.302;2023-07-09T10:49:03;3.93;;;1.97;;
58354;SDS011;44160;49.080;19.302;2023-07-09T10:54:32;5.18;;;2.10;;
58354;SDS011;44160;49.080;19.302;2023-07-09T10:57:22;3.42;;;2.03;;
58354;SDS011;44160;49.080;19.302;2023-07-09T10:59:53;2.83;;;2.07;;
58354;SDS011;44160;49.080;19.302;2023-07-09T11:05:04;2.83;;;2.15;;
58354;SDS011;44160;49.080;19.302;2023-07-09T11:07:43;3.22;;;2.10;;
58354;SDS011;44160;49.080;19.302;2023-07-09T11:10:19;2.72;;;2.25;;
58354;SDS011;44160;49.080;19.302;2023-07-09T11:12:51;3.67;;;2.22;;
58354;SDS011;44160;49.080;19.302;2023-07-09T11:15:20;4.32;;;1.90;;
58354;SDS011;44160;49.080;19.302;2023-07-09T11:17:49;2.83;;;2.10;;
58354;SDS011;44160;49.080;19.302;2023-07-09T11:20:20;2.97;;;1.90;;
58354;SDS011;44160;49.080;19.302;2023-07-09T11:22:52;3.15;;;1.92;;
58354;SDS011;44160;49.080;19.302;2023-07-09T11:28:04;3.20;;;2.53;;
58354;SDS011;44160;49.080;19.302;2023-07-09T11:30:31;3.85;;;2.13;;
58354;SDS011;44160;49.080;19.302;2023-07-09T11:32:58;4.55;;;2.22;;
58354;SDS011;44160;49.080;19.302;2023-07-09T11:35:25;5.07;;;2.58;;
58354;SDS011;44160;49.080;19.302;2023-07-09T11:37:52;3.35;;;2.40;;
58354;SDS011;44160;49.080;19.302;2023-07-09T11:40:18;3.88;;;2.38;;
58354;SDS011;44160;49.080;19.302;2023-07-09T11:42:58;3.47;;;2.20;;
58354;SDS011;44160;49.080;19.302;2023-07-09T11:45:28;3.13;;;2.20;;
58354;SDS011;44160;49.080;19.302;2023-07-09T11:48:20;3.35;;;1.98;;
58354;SDS011;44160;49.080;19.302;2023-07-09T11:50:49;5.40;;;2.28;;
58354;SDS011;44160;49.080;19.302;2023-07-09T11:53:34;5.18;;;2.22;;
58354;SDS011;44160;49.080;19.302;2023-07-09T11:56:02;7.30;;;2.75;;
58354;SDS011;44160;49.080;19.302;2023-07-09T11:58:28;5.43;;;2.50;;
58354;SDS011;44160;49.080;19.302;2023-07-09T12:00:55;3.70;;;2.72;;
58354;SDS011;44160;49.080;19.302;2023-07-09T12:03:29;2.95;;;2.33;;
58354;SDS011;44160;49.080;19.302;2023-07-09T12:06:13;5.65;;;2.38;;
58354;SDS011;44160;49.080;19.302;2023-07-09T12:08:42;2.42;;;2.00;;
58354;SDS011;44160;49.080;19.302;2023-07-09T12:11:31;2.58;;;2.25;;
58354;SDS011;44160;49.080;19.302;2023-07-09T12:14:01;4.68;;;2.05;;
58354;SDS011;44160;49.080;19.302;2023-07-09T12:16:30;2.92;;;2.25;;
58354;SDS011;44160;49.080;19.302;2023-07-09T12:18:56;3.00;;;2.03;;
58354;SDS011;44160;49.080;19.302;2023-07-09T12:21:23;4.80;;;2.40;;
58354;SDS011;44160;49.080;19.302;2023-07-09T12:23:49;2.78;;;2.25;;
58354;SDS011;44160;49.080;19.302;2023-07-09T12:26:16;3.25;;;1.95;;
58354;SDS011;44160;49.080;19.302;2023-07-09T12:28:48;3.13;;;2.33;;
58354;SDS011;44160;49.080;19.302;2023-07-09T12:31:15;3.33;;;2.25;;
58354;SDS011;44160;49.080;19.302;2023-07-09T12:33:48;3.42;;;2.33;;
58354;SDS011;44160;49.080;19.302;2023-07-09T12:36:14;4.15;;;2.60;;
58354;SDS011;44160;49.080;19.302;2023-07-09T12:38:43;2.78;;;2.20;;
58354;SDS011;44160;49.080;19.302;2023-07-09T12:41:18;4.57;;;2.13;;
58354;SDS011;44160;49.080;19.302;2023-07-09T12:43:47;2.67;;;2.30;;
58354;SDS011;44160;49.080;19.302;2023-07-09T12:46:14;4.90;;;2.28;;
58354;SDS011;44160;49.080;19.302;2023-07-09T12:48:40;4.18;;;2.17;;
58354;SDS011;44160;49.080;19.302;2023-07-09T12:51:07;7.63;;;2.72;;
58354;SDS011;44160;49.080;19.302;2023-07-09T12:53:35;3.90;;;2.30;;
58354;SDS011;44160;49.080;19.302;2023-07-09T12:56:02;3.28;;;2.15;;
58354;SDS011;44160;49.080;19.302;2023-07-09T12:58:31;4.03;;;2.22;;
58354;SDS011;44160;49.080;19.302;2023-07-09T13:01:04;3.85;;;2.38;;
58354;SDS011;44160;49.080;19.302;2023-07-09T13:03:32;2.50;;;1.85;;
58354;SDS011;44160;49.080;19.302;2023-07-09T13:08:25;4.13;;;2.13;;
58354;SDS011;44160;49.080;19.302;2023-07-09T13:10:52;3.53;;;2.15;;
58354;SDS011;44160;49.080;19.302;2023-07-09T13:13:20;2.75;;;2.28;;
58354;SDS011;44160;49.080;19.302;2023-07-09T13:16:00;5.38;;;2.47;;
58354;SDS011;44160;49.080;19.302;2023-07-09T13:18:27;3.08;;;2.30;;
58354;SDS011;44160;49.080;19.302;2023-07-09T13:20:54;3.22;;;2.35;;
58354;SDS011;44160;49.080;19.302;2023-07-09T13:23:23;3.10;;;2.10;;
58354;SDS011;44160;49.080;19.302;2023-07-09T13:25:49;4.20;;;1.98;;
58354;SDS011;44160;49.080;19.302;2023-07-09T13:28:17;4.72;;;2.60;;
58354;SDS011;44160;49.080;19.302;2023-07-09T13:30:44;4.00;;;2.00;;
58354;SDS011;44160;49.080;19.302;2023-07-09T13:33:10;2.47;;;2.20;;
58354;SDS011;44160;49.080;19.302;2023-07-09T13:35:36;3.55;;;2.28;;
58354;SDS011;44160;49.080;19.302;2023-07-09T13:38:10;3.22;;;2.20;;
58354;SDS011;44160;49.080;19.302;2023-07-09T13:40:37;2.95;;;2.13;;
58354;SDS011;44160;49.080;19.302;2023-07-09T13:43:07;3.70;;;2.00;;
58354;SDS011;44160;49.080;19.302;2023-07-09T13:45:33;2.45;;;2.10;;
58354;SDS011;44160;49.080;19.302;2023-07-09T13:47:59;3.85;;;2.03;;
58354;SDS011;44160;49.080;19.302;2023-07-09T13:50:25;2.78;;;2.30;;
58354;SDS011;44160;49.080;19.302;2023-07-09T13:52:51;3.47;;;2.20;;
58354;SDS011;44160;49.080;19.302;2023-07-09T13:55:21;3.95;;;2.00;;
58354;SDS011;44160;49.080;19.302;2023-07-09T13:57:48;3.45;;;2.28;;
58354;SDS011;44160;49.080;19.302;2023-07-09T14:00:15;2.30;;;2.00;;
58354;SDS011;44160;49.080;19.302;2023-07-09T14:02:41;4.30;;;2.35;;
58354;SDS011;44160;49.080;19.302;2023-07-09T14:05:08;4.25;;;1.95;;
58354;SDS011;44160;49.080;19.302;2023-07-09T14:07:36;3.67;;;2.30;;
58354;SDS011;44160;49.080;19.302;2023-07-09T14:10:03;3.03;;;2.20;;
58354;SDS011;44160;49.080;19.302;2023-07-09T14:12:29;6.28;;;2.38;;
58354;SDS011;44160;49.080;19.302;2023-07-09T14:14:57;3.08;;;2.00;;
58354;SDS011;44160;49.080;19.302;2023-07-09T14:17:23;2.85;;;2.10;;
58354;SDS011;44160;49.080;19.302;2023-07-09T14:19:50;2.25;;;1.83;;
58354;SDS011;44160;49.080;19.302;2023-07-09T14:24:51;2.63;;;1.80;;
58354;SDS011;44160;49.080;19.302;2023-07-09T14:27:18;4.95;;;2.38;;
58354;SDS011;44160;49.080;19.302;2023-07-09T14:29:44;2.83;;;2.22;;
58354;SDS011;44160;49.080;19.302;2023-07-09T14:34:55;3.88;;;2.28;;
58354;SDS011;44160;49.080;19.302;2023-07-09T14:37:21;2.30;;;1.90;;
58354;SDS011;44160;49.080;19.302;2023-07-09T14:39:47;3.53;;;2.50;;
58354;SDS011;44160;49.080;19.302;2023-07-09T14:42:13;2.15;;;1.85;;
58354;SDS011;44160;49.080;19.302;2023-07-09T14:44:40;4.00;;;2.10;;
58354;SDS011;44160;49.080;19.302;2023-07-09T14:47:10;2.90;;;2.20;;
58354;SDS011;44160;49.080;19.302;2023-07-09T14:49:37;2.50;;;2.30;;
58354;SDS011;44160;49.080;19.302;2023-07-09T14:52:04;3.53;;;2.28;;
58354;SDS011;44160;49.080;19.302;2023-07-09T14:54:31;3.30;;;1.92;;
58354;SDS011;44160;49.080;19.302;2023-07-09T14:56:57;2.85;;;2.30;;
58354;SDS011;44160;49.080;19.302;2023-07-09T14:59:24;3.67;;;2.25;;
58354;SDS011;44160;49.080;19.302;2023-07-09T15:01:50;3.80;;;2.13;;
58354;SDS011;44160;49.080;19.302;2023-07-09T15:04:32;2.65;;;2.10;;
58354;SDS011;44160;49.080;19.302;2023-07-09T15:06:59;2.78;;;1.98;;
58354;SDS011;44160;49.080;19.302;2023-07-09T15:09:26;3.95;;;2.03;;
58354;SDS011;44160;49.080;19.302;2023-07-09T15:11:57;4.43;;;2.60;;
58354;SDS011;44160;49.080;19.302;2023-07-09T15:14:24;3.40;;;2.22;;
58354;SDS011;44160;49.080;19.302;2023-07-09T15:16:50;3.28;;;2.25;;
58354;SDS011;44160;49.080;19.302;2023-07-09T15:19:19;2.88;;;2.30;;
58354;SDS011;44160;49.080;19.302;2023-07-09T15:21:46;3.05;;;2.42;;
58354;SDS011;44160;49.080;19.302;2023-07-09T15:24:34;2.50;;;2.22;;
58354;SDS011;44160;49.080;19.302;2023-07-09T15:26:58;2.85;;;2.42;;